Terminal Aerodrome Forecast
Issued by NWS

Home | Current Version | Previous Version | Graphics & Text | Print | Product List | Glossary Off
Versions: 1 2 3 4 5 6 7 8 9 10 11 12 13 14 15 16 17 18 19 20 21 22 23 24 25 26 27 28 29 30

000
FTUS43 KLOT 230531
TAFDPA
TAF
KDPA 230531Z 2306/2406 09004KT P6SM BKN250
     FM230900 14004KT P6SM BKN120
     FM231600 17010KT P6SM BKN070
     FM240100 15005KT P6SM BKN070=

USA.gov is the U.S. government's official web portal to all federal, state and local government web resources and services.